createdAt,value
2022-12-25T00:20:05.356Z,13.15
2022-12-25T00:22:32.206Z,12.30
2022-12-25T00:24:58.915Z,12.20
2022-12-25T00:27:25.546Z,12.30
2022-12-25T00:29:52.358Z,13.48
2022-12-25T00:32:19.016Z,12.18
2022-12-25T00:34:48.043Z,12.38
2022-12-25T00:37:14.749Z,15.25
2022-12-25T00:39:42.462Z,14.75
2022-12-25T00:42:20.212Z,13.43
2022-12-25T00:44:50.989Z,13.10
2022-12-25T00:47:20.706Z,14.23
2022-12-25T00:49:47.737Z,13.73
2022-12-25T00:52:17.488Z,12.45
2022-12-25T00:54:49.500Z,13.40
2022-12-25T00:57:16.119Z,12.82
2022-12-25T00:59:42.855Z,11.20
2022-12-25T01:02:25.271Z,12.20
2022-12-25T01:04:56.466Z,13.52
2022-12-25T01:07:26.569Z,12.23
2022-12-25T01:10:12.253Z,12.40
2022-12-25T01:12:43.344Z,12.48
2022-12-25T01:15:12.898Z,11.88
2022-12-25T01:17:39.868Z,12.50
2022-12-25T01:20:07.991Z,13.30
2022-12-25T01:22:34.972Z,12.73
2022-12-25T01:25:01.925Z,13.73
2022-12-25T01:27:28.739Z,12.68
2022-12-25T01:29:55.772Z,12.30
2022-12-25T01:32:22.535Z,12.35
2022-12-25T01:34:55.518Z,14.73
2022-12-25T01:37:24.979Z,10.75
2022-12-25T01:39:52.204Z,10.70
2022-12-25T01:42:23.778Z,11.68
2022-12-25T01:45:13.638Z,12.63
2022-12-25T01:47:40.478Z,13.50
2022-12-25T01:50:08.454Z,11.80
2022-12-25T01:52:35.688Z,11.48
2022-12-25T01:55:05.247Z,12.57
2022-12-25T01:57:44.599Z,11.63
2022-12-25T02:00:16.323Z,10.38
2022-12-25T02:02:45.346Z,11.55
2022-12-25T02:05:27.086Z,11.20
2022-12-25T02:07:57.971Z,10.93
2022-12-25T02:10:24.628Z,11.05
2022-12-25T02:12:52.537Z,8.95
2022-12-25T02:15:34.771Z,9.82
2022-12-25T02:18:27.132Z,10.25
2022-12-25T02:21:50.829Z,10.88
2022-12-25T02:24:53.413Z,9.70
2022-12-25T02:27:54.849Z,11.00
2022-12-25T02:30:22.236Z,10.05
2022-12-25T02:33:51.015Z,11.10
2022-12-25T02:36:30.858Z,11.98
2022-12-25T02:39:23.389Z,11.27
2022-12-25T02:41:56.810Z,11.48
2022-12-25T02:44:49.816Z,9.50
2022-12-25T02:47:38.268Z,10.57
2022-12-25T02:50:28.267Z,10.13
2022-12-25T02:53:18.332Z,10.10
2022-12-25T02:56:12.515Z,10.25
2022-12-25T02:59:03.530Z,10.68
2022-12-25T03:02:00.520Z,11.48
2022-12-25T03:04:53.717Z,11.75
2022-12-25T03:07:26.165Z,12.38
2022-12-25T03:10:28.335Z,10.48
2022-12-25T03:13:16.154Z,11.73
2022-12-25T03:16:01.907Z,11.93
2022-12-25T03:18:35.649Z,11.32
2022-12-25T03:21:21.556Z,12.00
2022-12-25T03:24:20.398Z,13.60
2022-12-25T03:26:57.066Z,10.38
2022-12-25T03:29:55.582Z,12.68
2022-12-25T03:33:36.686Z,12.75
2022-12-25T03:36:31.553Z,13.00
2022-12-25T03:39:40.580Z,13.00
2022-12-25T03:42:29.538Z,11.95
2022-12-25T03:45:34.095Z,12.68
2022-12-25T03:48:24.250Z,17.17
2022-12-25T03:51:30.659Z,15.40
2022-12-25T03:54:25.686Z,19.52
2022-12-25T04:02:42.020Z,18.10
2022-12-25T04:05:27.849Z,18.77
2022-12-25T04:08:13.136Z,21.50
2022-12-25T04:10:58.518Z,23.45
2022-12-25T04:13:44.078Z,26.48
2022-12-25T04:16:31.125Z,20.77
2022-12-25T04:19:16.447Z,26.17
2022-12-25T04:22:01.868Z,24.08
2022-12-25T04:24:47.344Z,26.40
2022-12-25T04:27:34.530Z,27.55
2022-12-25T04:30:19.874Z,26.35
2022-12-25T04:33:08.736Z,28.08
2022-12-25T04:35:54.136Z,23.83
2022-12-25T04:38:20.908Z,24.83
2022-12-25T04:40:47.813Z,24.17
2022-12-25T04:43:14.512Z,25.23
2022-12-25T04:45:41.287Z,23.35
2022-12-25T04:48:07.977Z,22.05
2022-12-25T04:50:34.686Z,20.25
2022-12-25T04:53:01.389Z,22.70
2022-12-25T04:55:27.978Z,24.60
2022-12-25T04:57:54.717Z,22.35
2022-12-25T05:00:21.401Z,22.50
2022-12-25T05:02:48.134Z,21.80
2022-12-25T05:05:14.999Z,21.85
2022-12-25T05:07:41.714Z,22.90
2022-12-25T05:10:09.276Z,22.13
2022-12-25T05:12:35.938Z,21.73
2022-12-25T05:15:05.842Z,24.70
2022-12-25T05:17:32.656Z,23.35
2022-12-25T05:19:59.446Z,25.45
2022-12-25T05:22:26.350Z,26.20
2022-12-25T05:24:53.075Z,23.75
2022-12-25T05:27:19.819Z,25.83
2022-12-25T05:29:49.651Z,24.90
2022-12-25T05:32:16.474Z,24.02
2022-12-25T05:34:43.246Z,27.20
2022-12-25T05:37:09.945Z,24.40
2022-12-25T05:39:39.776Z,27.63
2022-12-25T05:42:15.229Z,27.48
2022-12-25T05:44:42.009Z,25.98
2022-12-25T05:47:08.778Z,30.60
2022-12-25T05:49:35.549Z,27.77
2022-12-25T05:52:02.174Z,29.00
2022-12-25T05:54:28.920Z,29.33
2022-12-25T05:56:55.552Z,26.77
2022-12-25T05:59:22.308Z,27.45
2022-12-25T06:01:49.132Z,25.50
2022-12-25T06:04:16.111Z,25.17
2022-12-25T06:06:42.832Z,27.83
2022-12-25T06:09:13.448Z,27.45
2022-12-25T06:11:41.367Z,25.30
2022-12-25T06:14:14.474Z,27.00
2022-12-25T06:16:44.375Z,25.33
2022-12-25T06:19:11.077Z,21.45
2022-12-25T06:21:39.736Z,30.17
2022-12-25T06:24:07.086Z,27.42
2022-12-25T06:26:37.015Z,24.33
2022-12-25T06:29:06.799Z,24.10
2022-12-25T06:31:34.000Z,24.58
2022-12-25T06:34:00.837Z,25.17
2022-12-25T06:36:29.454Z,24.02
2022-12-25T06:38:56.915Z,28.60
2022-12-25T06:41:27.903Z,28.25
2022-12-25T06:44:04.890Z,30.02
2022-12-25T06:46:33.482Z,28.00
2022-12-25T06:49:03.507Z,27.55
2022-12-25T06:51:34.535Z,25.00
2022-12-25T06:54:07.620Z,24.83
2022-12-25T06:56:35.175Z,24.83
2022-12-25T06:59:08.657Z,26.45
2022-12-25T07:01:50.086Z,24.33
2022-12-25T07:04:40.712Z,22.63
2022-12-25T07:28:47.107Z,22.65
2022-12-25T08:03:32.006Z,21.38
2022-12-25T08:27:29.139Z,20.80
2022-12-25T08:32:36.736Z,20.15
2022-12-25T08:35:03.568Z,20.50
2022-12-25T08:37:31.551Z,19.45
2022-12-25T08:39:58.260Z,18.38
2022-12-25T08:42:25.017Z,20.13
2022-12-25T08:44:51.723Z,20.27
2022-12-25T08:47:18.462Z,19.42
2022-12-25T08:49:45.177Z,19.13
2022-12-25T08:52:12.232Z,17.58
2022-12-25T08:54:39.010Z,16.90
2022-12-25T08:57:05.702Z,17.73
2022-12-25T08:59:39.782Z,17.88
2022-12-25T09:02:15.991Z,18.88
2022-12-25T09:04:51.207Z,16.65
2022-12-25T09:07:18.141Z,17.75
2022-12-25T09:09:54.416Z,16.73
2022-12-25T09:12:42.232Z,17.00
2022-12-25T09:15:11.031Z,17.05
2022-12-25T09:17:37.869Z,17.77
2022-12-25T09:20:08.086Z,16.38
2022-12-25T09:22:38.034Z,15.07
2022-12-25T09:25:05.488Z,16.00
2022-12-25T09:27:33.408Z,16.83
2022-12-25T09:30:00.027Z,17.20
2022-12-25T09:32:26.807Z,16.63
2022-12-25T09:34:53.407Z,14.02
2022-12-25T09:37:20.083Z,13.77
2022-12-25T09:39:49.538Z,15.93
2022-12-25T09:42:37.101Z,15.00
2022-12-25T09:45:19.872Z,14.25
2022-12-25T09:47:52.907Z,15.35
2022-12-25T09:50:47.373Z,14.23
2022-12-25T09:53:30.565Z,13.82
2022-12-25T09:56:18.258Z,13.70
2022-12-25T09:58:53.026Z,15.05
2022-12-25T10:02:00.441Z,13.35
2022-12-25T10:05:12.815Z,13.35
2022-12-25T10:08:31.262Z,14.50
2022-12-25T10:11:55.640Z,13.88
2022-12-25T10:15:04.517Z,12.57
2022-12-25T10:18:14.086Z,13.80
2022-12-25T10:20:56.076Z,12.23
2022-12-25T10:24:07.681Z,12.68
2022-12-25T10:26:35.495Z,12.57
2022-12-25T10:29:15.983Z,13.70
2022-12-25T10:31:50.742Z,12.45
2022-12-25T10:34:21.012Z,12.05
2022-12-25T10:36:49.958Z,13.40
2022-12-25T10:39:25.068Z,12.60
2022-12-25T10:42:43.838Z,12.20
2022-12-25T10:45:10.972Z,14.35
2022-12-25T10:47:44.471Z,12.95
2022-12-25T10:50:26.795Z,11.32
2022-12-25T10:53:05.392Z,12.77
2022-12-25T10:55:33.847Z,11.82
2022-12-25T10:58:02.095Z,12.55
2022-12-25T11:00:32.705Z,11.30
2022-12-25T11:03:00.819Z,10.63
2022-12-25T11:05:34.514Z,11.73
2022-12-25T11:08:03.564Z,12.07
2022-12-25T11:10:44.165Z,11.75
2022-12-25T11:13:30.879Z,11.48
2022-12-25T11:16:14.393Z,11.32
2022-12-25T11:18:55.245Z,9.60
2022-12-25T11:21:36.936Z,9.98
2022-12-25T11:24:22.416Z,11.18
2022-12-25T11:26:53.491Z,11.07
2022-12-25T11:29:51.309Z,11.70
2022-12-25T11:32:41.689Z,10.90
2022-12-25T11:35:19.116Z,11.30
2022-12-25T11:37:52.706Z,10.93
2022-12-25T11:40:42.846Z,11.77
2022-12-25T11:43:48.210Z,11.73
2022-12-25T11:49:14.526Z,12.77
2022-12-25T11:51:49.159Z,13.23
2022-12-25T11:54:44.158Z,16.85
2022-12-25T12:00:00.773Z,12.02
2022-12-25T12:03:13.526Z,12.45
2022-12-25T12:05:59.985Z,11.57
2022-12-25T12:08:28.369Z,11.18
2022-12-25T12:11:36.464Z,13.20
2022-12-25T12:14:33.891Z,10.13
2022-12-25T12:17:07.107Z,10.40
2022-12-25T12:28:05.675Z,10.88
2022-12-25T12:47:42.990Z,15.35
2022-12-25T12:50:41.192Z,15.60
2022-12-25T12:53:35.825Z,12.40
2022-12-25T12:56:12.795Z,13.27
2022-12-25T12:58:50.814Z,11.90
2022-12-25T13:02:04.247Z,22.15
2022-12-25T13:05:10.284Z,12.98
2022-12-25T13:11:08.548Z,13.60
2022-12-25T13:28:17.205Z,14.25
2022-12-25T13:30:50.502Z,12.07
2022-12-25T13:36:09.322Z,21.80
2022-12-25T13:42:07.323Z,13.55
2022-12-25T13:55:59.692Z,14.25
2022-12-25T14:51:50.280Z,16.00
2022-12-25T14:54:25.757Z,17.08
2022-12-25T15:02:19.627Z,17.15
2022-12-25T15:35:06.855Z,14.63
2022-12-25T15:40:19.605Z,17.30
2022-12-25T15:42:50.332Z,14.25
2022-12-25T16:09:49.440Z,12.93
2022-12-25T16:23:03.055Z,14.02
2022-12-25T16:25:29.733Z,12.38
2022-12-25T16:27:56.375Z,14.25
2022-12-25T16:30:23.090Z,18.20
2022-12-25T16:32:50.751Z,14.00
2022-12-25T16:35:17.898Z,13.07
2022-12-25T16:37:45.084Z,11.25
2022-12-25T16:40:12.032Z,13.10
2022-12-25T16:42:41.120Z,11.98
2022-12-25T16:45:08.551Z,13.27
2022-12-25T16:47:35.244Z,11.98
2022-12-25T16:50:03.762Z,15.18
2022-12-25T16:52:32.911Z,12.35
2022-12-25T16:54:59.695Z,13.15
2022-12-25T16:57:28.009Z,14.63
2022-12-25T16:59:55.154Z,13.48
2022-12-25T17:02:24.461Z,13.48
2022-12-25T17:04:56.689Z,13.95
2022-12-25T17:07:25.307Z,15.40
2022-12-25T17:09:57.829Z,13.65
2022-12-25T17:12:27.135Z,21.33
2022-12-25T17:14:53.994Z,15.80
2022-12-25T17:17:20.680Z,18.13
2022-12-25T17:19:47.626Z,18.92
2022-12-25T17:22:14.321Z,14.10
2022-12-25T17:24:41.522Z,15.40
2022-12-25T17:27:09.351Z,14.30
2022-12-25T17:29:39.999Z,14.02
2022-12-25T17:32:11.469Z,18.73
2022-12-25T17:34:38.721Z,16.10
2022-12-25T17:37:05.926Z,21.88
2022-12-25T17:39:32.981Z,19.63
2022-12-25T17:41:59.703Z,14.95
2022-12-25T17:44:27.292Z,16.40
2022-12-25T17:46:57.157Z,15.65
2022-12-25T17:49:24.047Z,16.27
2022-12-25T17:51:51.075Z,16.85
2022-12-25T17:54:17.849Z,15.05
2022-12-25T17:56:44.633Z,14.70
2022-12-25T17:59:18.265Z,14.32
2022-12-25T18:01:48.059Z,16.92
2022-12-25T18:04:16.070Z,14.85
2022-12-25T18:06:42.711Z,15.68
2022-12-25T18:09:11.511Z,16.25
2022-12-25T18:11:49.452Z,16.45
2022-12-25T18:14:17.697Z,15.60
2022-12-25T18:16:47.571Z,16.15
2022-12-25T18:19:17.644Z,16.60
2022-12-25T18:21:44.500Z,16.83
2022-12-25T18:24:11.552Z,17.90
2022-12-25T18:26:38.454Z,16.70
2022-12-25T18:29:08.306Z,17.08
2022-12-25T18:31:36.573Z,17.00
2022-12-25T18:34:03.541Z,17.50
2022-12-25T18:36:30.816Z,18.70
2022-12-25T18:39:01.376Z,17.63
2022-12-25T18:41:28.895Z,17.70
2022-12-25T18:43:59.249Z,18.42
2022-12-25T18:46:29.199Z,18.42
2022-12-25T18:48:57.639Z,17.23
2022-12-25T18:51:27.719Z,20.95
2022-12-25T18:54:05.006Z,19.15
2022-12-25T18:56:32.118Z,17.33
2022-12-25T18:59:01.949Z,16.95
2022-12-25T19:01:29.023Z,16.83
2022-12-25T19:04:04.458Z,17.45
2022-12-25T19:06:33.465Z,17.05
2022-12-25T19:09:00.360Z,17.85
2022-12-25T19:11:27.067Z,15.57
2022-12-25T19:13:53.832Z,16.02
2022-12-25T19:16:20.613Z,15.88
2022-12-25T19:18:47.936Z,15.45
2022-12-25T19:21:16.011Z,16.83
2022-12-25T19:23:42.824Z,18.10
2022-12-25T19:26:14.361Z,16.08
2022-12-25T19:28:41.484Z,17.08
2022-12-25T19:31:10.413Z,17.48
2022-12-25T19:33:43.014Z,15.02
2022-12-25T19:36:15.991Z,15.52
2022-12-25T19:38:44.301Z,15.90
2022-12-25T19:41:18.869Z,16.90
2022-12-25T19:43:49.309Z,15.60
2022-12-25T19:46:28.544Z,16.10
2022-12-25T19:48:56.953Z,17.25
2022-12-25T19:51:31.380Z,16.65
2022-12-25T19:53:58.230Z,14.90
2022-12-25T19:56:28.817Z,15.93
2022-12-25T19:58:59.804Z,17.30
2022-12-25T20:09:36.886Z,16.23
2022-12-25T20:12:09.075Z,15.68
2022-12-25T20:36:10.094Z,14.48
2022-12-25T20:38:37.124Z,15.90
2022-12-25T20:41:32.428Z,15.98
2022-12-25T20:57:37.781Z,16.05
2022-12-25T21:00:10.783Z,17.05
2022-12-25T21:02:37.956Z,15.23
2022-12-25T21:05:07.884Z,15.65
2022-12-25T21:18:36.161Z,14.43
2022-12-25T21:21:15.754Z,13.40
2022-12-25T21:23:43.178Z,13.48
2022-12-25T21:37:35.910Z,12.25
2022-12-25T21:45:24.569Z,13.10
2022-12-25T21:56:13.795Z,14.70
2022-12-25T21:58:40.483Z,14.77
2022-12-25T22:01:07.319Z,12.73
2022-12-25T22:03:40.076Z,12.13
2022-12-25T22:06:25.684Z,11.70
2022-12-25T22:08:53.724Z,12.55
2022-12-25T22:11:39.214Z,11.02
2022-12-25T22:14:51.875Z,11.95
2022-12-25T22:17:31.807Z,11.00
2022-12-25T22:19:59.339Z,12.50
2022-12-25T22:22:31.113Z,16.05
2022-12-25T22:25:02.636Z,13.43
2022-12-25T22:27:37.992Z,12.43
2022-12-25T22:30:10.016Z,12.45
2022-12-25T22:32:37.279Z,11.57
2022-12-25T22:35:05.032Z,14.50
2022-12-25T22:37:34.871Z,14.55
2022-12-25T22:40:06.475Z,14.18
2022-12-25T22:42:36.140Z,12.88
2022-12-25T22:45:04.691Z,14.52
2022-12-25T22:47:31.684Z,13.27
2022-12-25T22:49:58.485Z,14.18
2022-12-25T22:52:29.159Z,12.57
2022-12-25T22:54:56.152Z,13.57
2022-12-25T22:57:23.104Z,13.52
2022-12-25T22:59:53.183Z,12.25
2022-12-25T23:02:23.052Z,15.38
2022-12-25T23:04:50.179Z,12.50
2022-12-25T23:07:17.149Z,12.93
2022-12-25T23:09:46.863Z,12.55
2022-12-25T23:12:33.672Z,15.35
2022-12-25T23:15:03.541Z,23.92
2022-12-25T23:17:48.562Z,15.05
2022-12-25T23:20:34.062Z,14.98
2022-12-25T23:23:22.862Z,13.63
2022-12-25T23:26:07.745Z,12.70
2022-12-25T23:29:00.911Z,13.52
2022-12-25T23:31:37.061Z,14.50
2022-12-25T23:34:06.466Z,12.18
2022-12-25T23:36:39.668Z,12.35
2022-12-25T23:39:10.158Z,11.70
2022-12-25T23:41:43.612Z,11.73
2022-12-25T23:44:13.170Z,12.32
2022-12-25T23:46:53.209Z,13.95
2022-12-25T23:49:23.511Z,13.90
2022-12-25T23:51:55.097Z,13.57
2022-12-25T23:54:34.276Z,14.35
2022-12-25T23:57:03.270Z,15.20
2022-12-25T23:59:38.369Z,16.75
